Terminal Aerodrome Forecast
Issued by NWS

Home | Current Version | Previous Version | Text Only | Print | Product List | Glossary On
Versions: 1 2 3 4 5 6 7 8 9 10 11 12 13 14 15 16 17 18 19 20 21 22 23 24 25 26 27 28 29
290
FTUS41 KPHI 251140
TAFPNE
TAF
KPNE 251140Z 2512/2612 05005KT P6SM OVC007
     FM251400 03006KT P6SM BKN015
     FM251900 01007KT P6SM BKN035
     FM260800 VRB03KT P6SM OVC025=

USA.gov is the U.S. government's official web portal to all federal, state and local government web resources and services.